AirNav   Duncan Aviation - Near you to keep you flying
 
 813 users online  

85MN Christison Airport
Plainview, Minnesota, USA

GOING TO PLAINVIEW?


FAA INFORMATION EFFECTIVE 01 DECEMBER 2022

Location

FAA Identifier: 85MN
Lat/Long: 44-09-30.8760N 092-12-07.6080W
44-09.514600N 092-12.126800W
44.1585767,-92.2021133
(estimated)
Elevation: 1175 ft. / 358 m (estimated)
Variation: 02E (1985)
From city: 2 miles W of PLAINVIEW, MN
Time zone: UTC -6 (UTC -5 during Daylight Saving Time)
Zip code: 55964

Airport Operations

Airport use: Private use. Permission required prior to landing
Activation date: 11/1978
Control tower: no
ARTCC: MINNEAPOLIS CENTER
FSS: PRINCETON FLIGHT SERVICE STATION
Attendance: UNATNDD
Wind indicator: yes
Segmented circle: no

Airport Communications

WX ASOS at RST (20 nm SW): PHONE 507-424-8146

Nearby radio navigation aids

VOR radial/distance  VOR name  Freq  Var
RSTr032/28.3ROCHESTER VOR/DME112.0005E
ODIr294/35.0NODINE VORTAC117.9001E

Airport Services

Runway Information

Runway N/S

Dimensions: 2300 x 50 ft. / 701 x 15 m
Surface: turf
RUNWAY N  RUNWAY S
Traffic pattern: leftleft

Airport Ownership and Management from official FAA records

Ownership: Privately-owned
Owner: WALTER CHRISTISON
53323 265TH AVE
PLAINVIEW, MN 55964
Phone 507-534-2826
Manager: WALTER CHRISTISON
53323 265TH AVE
PLAINVIEW, MN 55964
Phone 507-534-2826

Airport Operational Statistics

Aircraft based on the field: 1
Single engine airplanes: 1
    

Additional Remarks

FOR CD CTC MINNEAPOLIS ARTCC AT 651-463-5588.

Instrument Procedures

There are no published instrument procedures at 85MN.

Some nearby airports with instrument procedures:

KRST - Rochester International Airport (20 nm SW)
KONA - Winona Municipal Airport-Max Conrad Field (22 nm E)
55Y - Rushford Municipal Airport/Robert W Bunke Field (26 nm SE)
KTOB - Dodge Center Airport (28 nm W)
KRGK - Red Wing Regional Airport (29 nm NW)
 
Loc | Ops | Rwys | IFR | FBO | Links
Com | Nav | Svcs | Stats | Notes
Area around 85MN (Christison Airport)
 
Road maps at: MapQuest Bing Google
 
Aerial photo
No photo
 
Sectional chart

 
Airport distance calculator
Flying to Christison Airport? Find the distance to fly.

From to 85MN

Sunrise and sunset
Times for 03-Dec-2022
 Local
(UTC-6)
 Zulu
(UTC)
Morning civil twilight06:5512:55
Sunrise07:2713:27
Sunset16:3022:30
Evening civil twilight17:0323:03

Current date and time
Zulu (UTC)  04-Dec-2022 03:19:48
Local (UTC-6)  03-Dec-2022 21:19:48
 
METAR
K9MN 
15nm SW 
040255Z AUTO 17008G15KT 140V200 10SM CLR M08/M13 A3027 RMK AO1 T10831135
KRST 
20nm SW 
040254Z 19017KT 10SM CLR M09/M13 A3024 RMK AO2 SLP270 T10891133 56020 $
KONA 
22nm E 
040255Z AUTO 24003KT 10SM CLR M07/M13 A3031 RMK AO2
KRGK 
27nm NW 
040255Z AUTO 00000KT 10SM CLR M12/M16 A3026 RMK AO2
KTOB 
28nm W 
040255Z AUTO 19011KT 10SM CLR M09/M13 A3024 RMK AO2
KFKA 
29nm S 
040255Z AUTO 19011KT 10SM CLR M09/M13 A3028 RMK AO2 T10941131
TAF
KRST 
20nm SW 
031720Z 0318/0418 28014KT P6SM FEW200 FM032300 23006KT P6SM SKC
NOTAMs
Click for the latest NOTAMs
NOTAMs are issued by the DoD/FAA and will open in a separate window not controlled by AirNav.

 

 
 

Would you like to see your business listed on this page?

 If your business provides an interesting product or service to pilots, flight crews, aircraft, or users of the Christison Airport, you should consider listing it here.  To start the listing process, click on the button below
 
Add a business
 

Other Pages about Christison Airport

Update a link
 
Copyright © AirNav, LLC. All rights reserved. Privacy Policy  Contact